createdAt,value
2018-09-03T00:04:22.814Z,15.3
2018-09-03T00:09:22.832Z,15.3
2018-09-03T00:14:23.018Z,15.3
2018-09-03T00:19:22.802Z,15.3
2018-09-03T00:24:22.874Z,15.3
2018-09-03T00:29:22.855Z,15.4
2018-09-03T00:34:22.875Z,15.4
2018-09-03T00:39:24.524Z,15.4
2018-09-03T00:44:24.457Z,15.5
2018-09-03T00:49:37.248Z,15.5
2018-09-03T00:54:36.932Z,15.5
2018-09-03T00:59:37.152Z,15.5
2018-09-03T01:04:37.080Z,15.5
2018-09-03T01:09:37.119Z,15.5
2018-09-03T01:14:38.339Z,15.6
2018-09-03T01:19:38.516Z,15.5
2018-09-03T01:24:40.183Z,15.5
2018-09-03T01:29:41.215Z,15.4
2018-09-03T01:34:52.129Z,15.5
2018-09-03T01:39:52.067Z,15.5
2018-09-03T01:44:51.999Z,15.5
2018-09-03T01:49:52.039Z,15.5
2018-09-03T01:54:52.017Z,15.5
2018-09-03T01:59:51.869Z,15.5
2018-09-03T02:04:51.976Z,15.5
2018-09-03T02:09:52.066Z,15.6
2018-09-03T02:14:52.103Z,15.6
2018-09-03T02:19:52.079Z,15.6
2018-09-03T02:24:52.066Z,15.6
2018-09-03T02:29:52.119Z,15.6
2018-09-03T02:34:52.676Z,15.6
2018-09-03T02:39:52.401Z,15.6
2018-09-03T02:45:05.393Z,15.6
2018-09-03T02:50:05.109Z,15.6
2018-09-03T02:55:05.297Z,15.6
2018-09-03T03:00:05.314Z,15.6
2018-09-03T03:05:05.232Z,15.6
2018-09-03T03:10:05.270Z,15.6
2018-09-03T03:15:05.280Z,15.6
2018-09-03T03:20:05.195Z,15.6
2018-09-03T03:25:05.149Z,15.6
2018-09-03T03:30:17.940Z,15.6
2018-09-03T03:35:17.838Z,15.6
2018-09-03T03:40:17.794Z,15.6
2018-09-03T03:45:18.900Z,15.6
2018-09-03T03:50:17.677Z,15.6
2018-09-03T03:55:18.001Z,15.6
2018-09-03T04:00:17.808Z,15.6
2018-09-03T04:05:20.157Z,15.6
2018-09-03T04:10:20.013Z,15.6
2018-09-03T04:15:32.149Z,15.6
2018-09-03T04:20:31.896Z,15.6
2018-09-03T04:25:32.107Z,15.7
2018-09-03T04:30:31.892Z,15.7
2018-09-03T04:35:32.067Z,15.7
2018-09-03T04:40:31.892Z,15.6
2018-09-03T04:45:32.024Z,15.6
2018-09-03T04:50:32.054Z,15.7
2018-09-03T04:55:32.077Z,15.7
2018-09-03T05:00:47.234Z,15.7
2018-09-03T05:05:47.195Z,15.7
2018-09-03T05:10:47.162Z,15.7
2018-09-03T05:15:46.954Z,15.7
2018-09-03T05:20:46.950Z,15.7
2018-09-03T05:25:46.952Z,15.6
2018-09-03T05:30:47.217Z,15.7
2018-09-03T05:35:47.427Z,15.7
2018-09-03T05:40:47.140Z,15.8
2018-09-03T05:45:59.710Z,15.8
2018-09-03T05:50:59.591Z,15.9
2018-09-03T05:55:59.559Z,16
2018-09-03T06:00:59.575Z,16
2018-09-03T06:05:59.622Z,16.1
2018-09-03T06:10:59.437Z,16.1
2018-09-03T06:15:59.574Z,16.2
2018-09-03T06:20:59.629Z,16.2
2018-09-03T06:25:59.660Z,16.2
2018-09-03T06:30:59.440Z,16.3
2018-09-03T06:35:59.686Z,16.2
2018-09-03T06:40:59.571Z,16.3
2018-09-03T06:45:59.733Z,16.4
2018-09-03T06:50:59.704Z,16.4
2018-09-03T06:56:11.901Z,16.5
2018-09-03T07:01:11.773Z,16.5
2018-09-03T07:06:11.792Z,16.5
2018-09-03T07:11:11.666Z,16.5
2018-09-03T07:16:11.671Z,16.5
2018-09-03T07:21:11.677Z,16.5
2018-09-03T07:26:11.828Z,16.5
2018-09-03T07:31:13.017Z,16.7
2018-09-03T07:36:12.934Z,16.7
2018-09-03T07:41:25.542Z,16.9
2018-09-03T07:46:25.498Z,17
2018-09-03T07:51:25.415Z,17.1
2018-09-03T07:56:25.258Z,17.1
2018-09-03T08:01:25.505Z,17.2
2018-09-03T08:06:26.241Z,17.2
2018-09-03T08:11:26.171Z,17.2
2018-09-03T08:16:26.218Z,17.2
2018-09-03T08:21:25.986Z,17.2
2018-09-03T08:26:26.122Z,17.3
2018-09-03T08:31:26.207Z,17.4
2018-09-03T08:36:26.140Z,17.3
2018-09-03T08:41:29.492Z,17.4
2018-09-03T08:46:29.378Z,17.5
2018-09-03T08:51:41.783Z,17.5
2018-09-03T08:56:41.796Z,17.5
2018-09-03T09:01:41.661Z,17.6
2018-09-03T09:06:41.519Z,17.9
2018-09-03T09:11:41.781Z,18.3
2018-09-03T09:16:41.792Z,18.2
2018-09-03T09:21:41.528Z,18.2
2018-09-03T09:26:42.974Z,18.3
2018-09-03T09:31:42.875Z,18.1
2018-09-03T09:36:54.861Z,18.1
2018-09-03T09:41:54.520Z,18.1
2018-09-03T09:46:54.666Z,18.3
2018-09-03T09:51:54.523Z,18.3
2018-09-03T09:56:54.518Z,18.4
2018-09-03T10:01:54.526Z,18.5
2018-09-03T10:06:54.700Z,18.4
2018-09-03T10:11:54.529Z,18.6
2018-09-03T10:16:54.513Z,18.5
2018-09-03T10:21:54.700Z,18.6
2018-09-03T10:26:54.742Z,18.8
2018-09-03T10:31:54.679Z,18.9
2018-09-03T10:36:54.961Z,18.9
2018-09-03T10:41:54.693Z,19.1
2018-09-03T10:47:07.325Z,19.1
2018-09-03T10:52:07.008Z,19.1
2018-09-03T10:57:07.243Z,19.3
2018-09-03T11:02:07.162Z,19.3
2018-09-03T11:07:07.192Z,19.4
2018-09-03T11:12:07.167Z,19.2
2018-09-03T11:17:07.157Z,19.2
2018-09-03T11:22:07.315Z,19.4
2018-09-03T11:27:07.236Z,19.6
2018-09-03T11:32:19.634Z,19.6
2018-09-03T11:37:19.590Z,19.7
2018-09-03T11:42:19.516Z,19.8
2018-09-03T11:47:19.556Z,19.9
2018-09-03T11:52:19.600Z,20
2018-09-03T11:57:19.370Z,20.4
2018-09-03T12:02:19.377Z,20.7
2018-09-03T12:07:22.325Z,21.3
2018-09-03T12:12:19.519Z,21.4
2018-09-03T12:17:19.405Z,21.4
2018-09-03T12:22:19.588Z,21.7
2018-09-03T12:27:19.514Z,22.1
2018-09-03T12:32:19.966Z,21.8
2018-09-03T12:37:19.816Z,21.9
2018-09-03T12:42:32.234Z,21.5
2018-09-03T12:47:32.130Z,21.8
2018-09-03T12:52:32.047Z,21.8
2018-09-03T12:57:32.105Z,22.1
2018-09-03T13:02:39.413Z,22.1
2018-09-03T13:07:33.101Z,21.9
2018-09-03T13:12:33.015Z,22.2
2018-09-03T13:17:32.970Z,22.3
2018-09-03T13:22:33.017Z,22.4
2018-09-03T13:27:33.052Z,22.2
2018-09-03T13:32:32.813Z,22.4
2018-09-03T13:37:33.021Z,22.4
2018-09-03T13:42:32.815Z,22.4
2018-09-03T13:47:32.959Z,22.1
2018-09-03T13:52:45.786Z,22
2018-09-03T13:57:45.670Z,22.1
2018-09-03T14:02:45.648Z,21.8
2018-09-03T14:07:45.787Z,22.1
2018-09-03T14:12:45.740Z,21.9
2018-09-03T14:17:45.535Z,21.6
2018-09-03T14:22:45.662Z,21.3
2018-09-03T14:27:46.172Z,21.2
2018-09-03T14:32:45.888Z,21.2
2018-09-03T14:38:07.816Z,21.3
2018-09-03T14:43:07.650Z,21
2018-09-03T14:48:07.566Z,21
2018-09-03T14:53:07.832Z,21.2
2018-09-03T14:58:19.782Z,21.2
2018-09-03T15:03:19.481Z,21.4
2018-09-03T15:08:19.530Z,21.4
2018-09-03T15:13:19.491Z,21.3
2018-09-03T15:18:19.502Z,21.5
2018-09-03T15:23:19.496Z,21.4
2018-09-03T15:28:19.507Z,21.3
2018-09-03T15:33:19.502Z,21.2
2018-09-03T15:38:19.503Z,21.1
2018-09-03T15:43:30.667Z,20.8
2018-09-03T15:48:30.312Z,20.7
2018-09-03T15:53:30.222Z,20.5
2018-09-03T15:58:30.283Z,20.6
2018-09-03T16:03:30.272Z,20.4
2018-09-03T16:08:30.293Z,20.3
2018-09-03T16:13:30.297Z,20.2
2018-09-03T16:18:31.463Z,20.1
2018-09-03T16:23:31.188Z,20
2018-09-03T16:28:41.468Z,20
2018-09-03T16:33:41.173Z,19.9
2018-09-03T16:38:41.206Z,19.7
2018-09-03T16:43:41.333Z,19.6
2018-09-03T16:48:41.614Z,19.5
2018-09-03T16:53:41.270Z,19.4
2018-09-03T16:58:41.513Z,19.3
2018-09-03T17:03:41.404Z,19.1
2018-09-03T17:08:41.470Z,19.1
2018-09-03T17:13:41.269Z,19
2018-09-03T17:18:41.282Z,19
2018-09-03T17:23:41.422Z,18.9
2018-09-03T17:28:44.698Z,18.8
2018-09-03T17:33:44.623Z,18.7
2018-09-03T17:38:58.062Z,18.6
2018-09-03T17:43:58.008Z,18.5
2018-09-03T17:48:58.028Z,18.5
2018-09-03T17:53:57.768Z,18.4
2018-09-03T17:58:57.803Z,18.3
2018-09-03T18:03:57.817Z,18.2
2018-09-03T18:08:57.812Z,18.2
2018-09-03T18:13:57.832Z,18
2018-09-03T18:18:57.805Z,18
2018-09-03T18:24:09.388Z,18
2018-09-03T18:29:09.046Z,17.9
2018-09-03T18:34:09.081Z,17.7
2018-09-03T18:39:09.089Z,17.3
2018-09-03T18:44:09.093Z,17.3
2018-09-03T18:49:09.692Z,17.3
2018-09-03T18:54:09.434Z,17.3
2018-09-03T18:59:09.434Z,17.3
2018-09-03T19:04:09.426Z,17.3
2018-09-03T19:09:09.433Z,17.2
2018-09-03T19:14:12.867Z,17.1
2018-09-03T19:19:09.432Z,17.2
2018-09-03T19:24:11.594Z,17.2
2018-09-03T19:29:11.450Z,17.3
2018-09-03T19:34:22.049Z,17.1
2018-09-03T19:39:21.757Z,17.2
2018-09-03T19:44:21.744Z,17.1
2018-09-03T19:49:21.969Z,17.1
2018-09-03T19:54:21.971Z,17
2018-09-03T19:59:22.258Z,17
2018-09-03T20:04:22.229Z,17
2018-09-03T20:09:23.864Z,16.9
2018-09-03T20:14:23.566Z,16.8
2018-09-03T20:19:36.056Z,16.9
2018-09-03T20:24:35.792Z,16.8
2018-09-03T20:29:35.971Z,16.8
2018-09-03T20:34:36.038Z,16.8
2018-09-03T20:39:36.049Z,16.7
2018-09-03T20:44:35.780Z,16.7
2018-09-03T20:49:35.826Z,16.6
2018-09-03T20:54:35.844Z,16.5
2018-09-03T20:59:35.828Z,16.6
2018-09-03T21:04:35.825Z,16.5
2018-09-03T21:09:35.837Z,16.5
2018-09-03T21:14:36.076Z,16.5
2018-09-03T21:19:37.236Z,16.5
2018-09-03T21:24:36.910Z,16.5
2018-09-03T21:29:49.220Z,16.5
2018-09-03T21:34:48.923Z,16.5
2018-09-03T21:39:48.920Z,16.4
2018-09-03T21:44:48.949Z,16.4
2018-09-03T21:49:49.168Z,16.3
2018-09-03T21:54:49.173Z,16.3
2018-09-03T21:59:49.182Z,16.4
2018-09-03T22:04:49.222Z,16.4
2018-09-03T22:09:49.372Z,16.4
2018-09-03T22:15:01.370Z,16.4
2018-09-03T22:20:01.316Z,16.3
2018-09-03T22:25:01.235Z,16.3
2018-09-03T22:30:01.202Z,16.3
2018-09-03T22:35:01.117Z,16.3
2018-09-03T22:40:01.136Z,16.3
2018-09-03T22:45:01.271Z,16.3
2018-09-03T22:50:01.321Z,16.4
2018-09-03T22:55:01.119Z,16.3
2018-09-03T23:00:01.132Z,16.3
2018-09-03T23:05:01.312Z,16.2
2018-09-03T23:10:01.114Z,16.2
2018-09-03T23:15:03.233Z,16.3
2018-09-03T23:20:03.155Z,16.3
2018-09-03T23:25:15.692Z,16.3
2018-09-03T23:30:15.615Z,16.3
2018-09-03T23:35:15.648Z,16.3
2018-09-03T23:40:15.570Z,16.3
2018-09-03T23:45:15.583Z,16.3
2018-09-03T23:50:15.516Z,16.3
2018-09-03T23:55:15.481Z,16.4
